createdAt,value
2023-05-12T00:01:25.301Z,0.0
2023-05-12T00:06:31.661Z,0.0
2023-05-12T00:11:38.062Z,0.0
2023-05-12T00:16:44.593Z,0.0
2023-05-12T00:22:27.984Z,0.0
2023-05-12T00:27:25.487Z,0.0
2023-05-12T00:33:05.973Z,0.0
2023-05-12T00:37:48.266Z,0.0
2023-05-12T00:42:54.841Z,0.0
2023-05-12T00:48:01.115Z,0.0
2023-05-12T00:53:45.105Z,0.0
2023-05-12T00:58:13.878Z,0.0
2023-05-12T01:03:20.319Z,0.0
2023-05-12T01:08:26.633Z,0.0
2023-05-12T01:13:33.135Z,0.0
2023-05-12T01:18:38.397Z,0.0
2023-05-12T01:23:46.506Z,0.0
2023-05-12T01:28:52.948Z,0.0
2023-05-12T01:33:59.444Z,0.0
2023-05-12T01:39:05.810Z,0.0
2023-05-12T01:44:13.136Z,0.0
2023-05-12T01:49:20.490Z,0.0
2023-05-12T01:54:26.888Z,0.0
2023-05-12T01:59:33.401Z,0.0
2023-05-12T02:04:39.754Z,0.0
2023-05-12T02:09:36.129Z,0.0
2023-05-12T02:14:54.115Z,0.0
2023-05-12T02:20:00.486Z,0.0
2023-05-12T02:25:06.867Z,0.0
2023-05-12T02:30:13.285Z,0.0
2023-05-12T02:35:19.631Z,0.0
2023-05-12T02:40:26.017Z,0.0
2023-05-12T02:45:22.433Z,0.0
2023-05-12T02:55:47.705Z,0.0
2023-05-12T03:01:06.659Z,0.0
2023-05-12T03:06:01.577Z,0.0
2023-05-12T03:11:07.968Z,0.0
2023-05-12T03:16:14.371Z,0.0
2023-05-12T03:21:10.721Z,0.0
2023-05-12T03:26:27.113Z,0.0
2023-05-12T03:31:35.170Z,0.0
2023-05-12T03:36:41.577Z,5.0
2023-05-12T03:41:47.956Z,5.0
2023-05-12T03:46:54.477Z,10.0
2023-05-12T03:52:01.508Z,10.0
2023-05-12T04:02:14.393Z,20.0
2023-05-12T04:07:58.704Z,25.0
2023-05-12T04:13:42.315Z,30.0
2023-05-12T04:18:49.828Z,35.0
2023-05-12T04:23:56.126Z,45.0
2023-05-12T04:29:02.499Z,50.0
2023-05-12T04:34:08.898Z,60.0
2023-05-12T04:39:15.257Z,65.0
2023-05-12T04:44:22.744Z,65.0
2023-05-12T04:49:29.197Z,70.0
2023-05-12T04:54:39.550Z,75.0
2023-05-12T05:00:21.003Z,80.0
2023-05-12T05:04:48.381Z,90.0
2023-05-12T05:09:54.734Z,100.0
2023-05-12T05:15:01.125Z,105.0
2023-05-12T05:20:11.823Z,120.0
2023-05-12T05:25:04.580Z,130.0
2023-05-12T05:30:35.020Z,135.0
2023-05-12T05:35:17.601Z,145.0
2023-05-12T05:40:44.895Z,155.0
2023-05-12T05:45:40.164Z,165.0
2023-05-12T05:50:46.604Z,175.0
2023-05-12T05:55:42.897Z,180.0
2023-05-12T06:00:49.275Z,185.0
2023-05-12T06:05:55.689Z,200.0
2023-05-12T06:11:12.086Z,195.0
2023-05-12T06:16:18.524Z,195.0
2023-05-12T06:21:14.879Z,190.0
2023-05-12T06:26:31.214Z,180.0
2023-05-12T06:31:27.649Z,185.0
2023-05-12T06:36:44.028Z,190.0
2023-05-12T06:41:50.574Z,195.0
2023-05-12T06:46:46.941Z,210.0
2023-05-12T06:52:02.355Z,185.0
2023-05-12T06:57:09.665Z,195.0
2023-05-12T07:02:19.614Z,215.0
2023-05-12T07:07:15.995Z,220.0
2023-05-12T07:12:32.926Z,265.0
2023-05-12T07:18:03.525Z,320.0
2023-05-12T07:22:45.929Z,350.0
2023-05-12T07:27:52.191Z,405.0
2023-05-12T07:33:00.200Z,395.0
2023-05-12T07:38:30.564Z,395.0
2023-05-12T07:43:40.475Z,430.0
2023-05-12T07:48:22.832Z,360.0
2023-05-12T07:53:29.366Z,400.0
2023-05-12T07:58:35.913Z,410.0
2023-05-12T08:04:01.430Z,370.0
2023-05-12T08:09:12.563Z,420.0
2023-05-12T08:13:44.877Z,445.0
2023-05-12T08:19:21.309Z,485.0
2023-05-12T08:24:11.199Z,530.0
2023-05-12T08:29:17.752Z,575.0
2023-05-12T08:34:13.948Z,585.0
2023-05-12T08:39:30.408Z,555.0
2023-05-12T08:44:35.798Z,630.0
2023-05-12T08:50:08.328Z,650.0
2023-05-12T08:54:55.826Z,440.0
2023-05-12T08:59:57.148Z,375.0
2023-05-12T09:05:03.484Z,525.0
2023-05-12T09:10:13.373Z,590.0
2023-05-12T09:15:06.420Z,680.0
2023-05-12T09:20:30.981Z,745.0
2023-05-12T09:25:19.324Z,775.0
2023-05-12T09:30:35.676Z,865.0
2023-05-12T09:35:42.087Z,870.0
2023-05-12T09:40:48.560Z,985.0
2023-05-12T09:45:54.981Z,850.0
2023-05-12T09:51:01.327Z,680.0
2023-05-12T09:56:07.713Z,700.0
2023-05-12T10:01:18.282Z,770.0
2023-05-12T10:06:10.440Z,875.0
2023-05-12T10:11:16.802Z,910.0
2023-05-12T10:17:11.689Z,1140.0
2023-05-12T10:21:38.693Z,1075.0
2023-05-12T10:26:36.029Z,1365.0
2023-05-12T10:31:52.586Z,1175.0
2023-05-12T10:36:58.876Z,1150.0
2023-05-12T10:42:05.195Z,1180.0
2023-05-12T10:48:21.700Z,1610.0
2023-05-12T10:52:21.563Z,1760.0
2023-05-12T10:57:28.254Z,910.0
2023-05-12T11:02:36.718Z,875.0
2023-05-12T11:08:02.523Z,1830.0
2023-05-12T11:12:51.229Z,1835.0
2023-05-12T11:17:56.636Z,1805.0
2023-05-12T11:23:04.087Z,1860.0
2023-05-12T11:28:10.368Z,1900.0
2023-05-12T11:33:16.805Z,1920.0
2023-05-12T11:38:13.162Z,1820.0
2023-05-12T11:43:29.574Z,1770.0
2023-05-12T11:48:35.951Z,1935.0
2023-05-12T11:53:43.935Z,1935.0
2023-05-12T11:59:04.311Z,1900.0
2023-05-12T12:03:56.755Z,1850.0
2023-05-12T12:09:23.136Z,1870.0
2023-05-12T12:14:12.997Z,2030.0
2023-05-12T12:19:19.460Z,1835.0
2023-05-12T12:24:25.990Z,1775.0
2023-05-12T12:30:34.401Z,1905.0
2023-05-12T12:34:38.623Z,1840.0
2023-05-12T12:40:05.126Z,1850.0
2023-05-12T12:44:41.405Z,1835.0
2023-05-12T12:49:57.823Z,505.0
2023-05-12T12:55:07.772Z,600.0
2023-05-12T13:00:04.091Z,360.0
2023-05-12T13:05:20.970Z,1710.0
2023-05-12T13:10:26.962Z,330.0
2023-05-12T13:15:23.503Z,375.0
2023-05-12T13:20:39.676Z,230.0
2023-05-12T13:25:46.065Z,185.0
2023-05-12T13:30:52.640Z,200.0
2023-05-12T13:35:48.933Z,210.0
2023-05-12T13:41:09.381Z,255.0
2023-05-12T13:46:01.795Z,390.0
2023-05-12T13:51:08.083Z,475.0
2023-05-12T13:56:24.550Z,475.0
2023-05-12T14:02:14.958Z,1205.0
2023-05-12T14:06:57.271Z,435.0
2023-05-12T14:11:43.688Z,430.0
2023-05-12T14:16:50.115Z,290.0
2023-05-12T14:21:56.374Z,220.0
2023-05-12T14:27:02.830Z,245.0
2023-05-12T14:32:29.357Z,295.0
2023-05-12T14:37:05.654Z,335.0
2023-05-12T14:42:12.139Z,405.0
2023-05-12T14:47:48.550Z,410.0
2023-05-12T14:52:34.852Z,380.0
2023-05-12T14:57:41.242Z,355.0
2023-05-12T15:03:11.896Z,290.0
2023-05-12T15:07:54.002Z,290.0
2023-05-12T15:13:20.555Z,320.0
2023-05-12T15:18:30.835Z,345.0
2023-05-12T15:23:13.142Z,325.0
2023-05-12T15:28:43.758Z,300.0
2023-05-12T15:33:17.133Z,280.0
2023-05-12T15:38:33.530Z,255.0
2023-05-12T15:43:41.495Z,260.0
2023-05-12T15:48:47.891Z,245.0
2023-05-12T15:54:29.856Z,230.0
2023-05-12T15:59:02.156Z,220.0
2023-05-12T16:04:08.654Z,210.0
2023-05-12T16:09:35.009Z,205.0
2023-05-12T16:14:41.383Z,200.0
2023-05-12T16:19:27.762Z,195.0
2023-05-12T16:24:54.156Z,190.0
2023-05-12T16:29:30.512Z,185.0
2023-05-12T16:35:07.030Z,190.0
2023-05-12T16:40:17.380Z,205.0
2023-05-12T16:44:59.720Z,210.0
2023-05-12T16:49:56.194Z,205.0
2023-05-12T16:55:12.605Z,215.0
2023-05-12T17:00:08.944Z,185.0
2023-05-12T17:06:09.462Z,205.0
2023-05-12T17:10:55.839Z,165.0
2023-05-12T17:15:38.135Z,155.0
2023-05-12T17:20:44.522Z,130.0
2023-05-12T17:25:50.896Z,80.0
2023-05-12T17:30:57.325Z,60.0
2023-05-12T17:36:27.731Z,65.0
2023-05-12T17:41:30.104Z,60.0
2023-05-12T17:46:36.756Z,60.0
2023-05-12T17:51:23.247Z,60.0
2023-05-12T17:56:29.618Z,65.0
2023-05-12T18:01:36.036Z,60.0
2023-05-12T18:06:42.435Z,60.0
2023-05-12T18:11:48.880Z,60.0
2023-05-12T18:16:55.339Z,55.0
2023-05-12T18:22:25.771Z,50.0
2023-05-12T18:27:28.105Z,45.0
2023-05-12T18:32:14.471Z,35.0
2023-05-12T18:37:20.864Z,30.0
2023-05-12T18:42:28.342Z,25.0
2023-05-12T18:47:36.879Z,25.0
2023-05-12T18:53:03.304Z,20.0
2023-05-12T18:58:09.825Z,15.0
2023-05-12T19:04:10.223Z,10.0
2023-05-12T19:08:46.550Z,5.0
2023-05-12T19:13:32.921Z,5.0
2023-05-12T19:18:15.228Z,0.0
2023-05-12T19:23:21.861Z,0.0
2023-05-12T19:29:42.448Z,0.0
2023-05-12T19:33:34.665Z,0.0
2023-05-12T19:39:05.103Z,0.0
2023-05-12T19:43:47.471Z,0.0
2023-05-12T19:49:31.917Z,0.0
2023-05-12T19:54:02.333Z,0.0
2023-05-12T19:59:28.774Z,0.0
2023-05-12T20:04:59.216Z,0.0
2023-05-12T20:09:45.732Z,0.0
2023-05-12T20:14:28.057Z,0.0
2023-05-12T20:19:34.482Z,0.0
2023-05-12T20:24:41.116Z,0.0
2023-05-12T20:30:11.494Z,0.0
2023-05-12T20:34:53.860Z,0.0
2023-05-12T20:40:00.271Z,0.0
2023-05-12T20:45:06.607Z,0.0
2023-05-12T20:50:13.064Z,0.0
2023-05-12T20:55:19.642Z,0.0
2023-05-12T21:00:25.745Z,0.0
2023-05-12T21:05:32.119Z,0.0
2023-05-12T21:10:52.542Z,0.0
2023-05-12T21:16:04.931Z,0.0
2023-05-12T21:21:15.315Z,0.0
2023-05-12T21:25:47.749Z,0.0
2023-05-12T21:32:16.353Z,0.0
2023-05-12T21:36:54.656Z,0.0
2023-05-12T21:41:16.913Z,0.0
2023-05-12T21:46:23.372Z,0.0
2023-05-12T21:52:55.883Z,0.0
2023-05-12T21:57:00.143Z,0.0
2023-05-12T22:02:38.626Z,0.0
2023-05-12T22:06:48.889Z,0.0
2023-05-12T22:11:55.278Z,0.0
2023-05-12T22:17:01.914Z,0.0
2023-05-12T22:22:07.989Z,0.0
2023-05-12T22:28:07.279Z,0.0
2023-05-12T22:32:23.871Z,0.0
2023-05-12T22:37:54.221Z,0.0
2023-05-12T22:42:36.568Z,0.0
2023-05-12T22:47:43.026Z,0.0
2023-05-12T22:52:49.339Z,0.0
2023-05-12T22:58:19.762Z,0.0
2023-05-12T23:03:26.222Z,0.0
2023-05-12T23:08:28.520Z,0.0
2023-05-12T23:13:16.427Z,0.0
2023-05-12T23:18:22.980Z,0.0
2023-05-12T23:24:25.507Z,0.0
2023-05-12T23:28:35.735Z,0.0
2023-05-12T23:33:42.151Z,0.0
2023-05-12T23:38:48.493Z,0.0
2023-05-12T23:43:55.111Z,0.0
2023-05-12T23:49:01.481Z,0.0
2023-05-12T23:54:07.856Z,0.0
2023-05-12T23:59:14.407Z,0.0
